Time;durP1;ratioP1;P1;durP2;ratioP2;P2;SDS_P1;SDS_P2;PMS_P1;PMS_P2;Temp;Humidity;BMP_temperature;BMP_pressure;BME280_temperature;BME280_humidity;BME280_pressure;Samples;Min_cycle;Max_cycle;Signal;HPM_P1;HPM_P2
2023/06/02 00:01:04;;;;;;;6.63;2.42;;;13.40;87.80;;;;;;4945379;28;20038;-88
2023/06/02 00:03:34;;;;;;;5.97;2.35;;;13.50;87.80;;;;;;4977473;28;20030;-88
2023/06/02 00:06:01;;;;;;;8.20;2.53;;;13.50;87.80;;;;;;4981818;28;20072;-88
2023/06/02 00:08:32;;;;;;;8.02;2.50;;;13.50;87.80;;;;;;4997375;28;20030;-89
2023/06/02 00:11:00;;;;;;;4.65;2.25;;;13.50;87.90;;;;;;4984761;28;20032;-87
2023/06/02 00:13:26;;;;;;;6.43;2.40;;;13.50;87.80;;;;;;4985842;28;20022;-87
2023/06/02 00:15:52;;;;;;;5.70;2.25;;;13.50;87.80;;;;;;4979111;28;20019;-88
2023/06/02 00:18:20;;;;;;;10.43;3.13;;;13.60;88.00;;;;;;4994520;28;20030;-88
2023/06/02 00:20:46;;;;;;;9.27;2.95;;;13.60;88.10;;;;;;5022641;28;20029;-87
2023/06/02 00:23:15;;;;;;;7.30;2.58;;;13.50;88.00;;;;;;5000820;28;20122;-88
2023/06/02 00:25:44;;;;;;;9.30;2.50;;;13.50;88.10;;;;;;4987357;28;20128;-87
2023/06/02 00:28:10;;;;;;;10.02;2.63;;;13.50;88.20;;;;;;5003163;28;20462;-88
2023/06/02 00:30:39;;;;;;;7.82;2.55;;;13.50;88.10;;;;;;5000209;28;20061;-87
2023/06/02 00:33:04;;;;;;;10.48;2.83;;;13.50;88.20;;;;;;4999935;28;20041;-88
2023/06/02 00:35:30;;;;;;;6.95;2.47;;;13.50;88.00;;;;;;5000772;28;20026;-87
2023/06/02 00:38:04;;;;;;;7.82;2.90;;;13.50;88.10;;;;;;4984078;28;20037;-85
2023/06/02 00:40:30;;;;;;;8.52;2.70;;;13.50;88.10;;;;;;4984864;28;20124;-88
2023/06/02 00:43:00;;;;;;;8.15;2.50;;;13.50;88.20;;;;;;5022612;28;20049;-89
2023/06/02 00:45:28;;;;;;;6.22;2.47;;;13.40;88.20;;;;;;5014164;28;20094;-89
2023/06/02 00:47:55;;;;;;;9.77;2.60;;;13.50;88.30;;;;;;4985345;28;20479;-83
2023/06/02 00:50:21;;;;;;;11.30;2.65;;;13.50;88.30;;;;;;4996766;28;20121;-84
2023/06/02 00:52:51;;;;;;;10.38;2.60;;;13.50;88.20;;;;;;4991867;28;20015;-83
2023/06/02 00:55:17;;;;;;;8.98;2.97;;;13.50;88.10;;;;;;5002847;28;20019;-83
2023/06/02 00:57:43;;;;;;;12.75;2.65;;;13.40;88.00;;;;;;5004408;28;20019;-83
2023/06/02 01:00:09;;;;;;;12.10;3.30;;;13.40;88.00;;;;;;5020813;28;20090;-83
2023/06/02 01:02:35;;;;;;;7.32;2.65;;;13.30;87.70;;;;;;4993846;28;20034;-83
2023/06/02 01:05:06;;;;;;;10.88;2.92;;;13.20;87.80;;;;;;4997239;28;20054;-83
2023/06/02 01:07:33;;;;;;;7.03;2.75;;;13.20;88.10;;;;;;4980400;28;20066;-83
2023/06/02 01:10:02;;;;;;;10.45;2.92;;;13.20;88.10;;;;;;4997384;28;20033;-83
2023/06/02 01:12:27;;;;;;;8.75;2.67;;;13.30;88.10;;;;;;4997243;28;20022;-84
2023/06/02 01:14:53;;;;;;;11.10;3.08;;;13.20;88.10;;;;;;4979651;28;20034;-83
2023/06/02 01:17:19;;;;;;;11.50;3.38;;;13.30;88.20;;;;;;4995691;28;20026;-83
2023/06/02 01:19:49;;;;;;;9.43;2.85;;;13.30;88.10;;;;;;4979300;28;20065;-83
2023/06/02 01:22:23;;;;;;;9.75;3.08;;;13.30;88.10;;;;;;4995771;28;20470;-84
2023/06/02 01:24:49;;;;;;;12.45;3.08;;;13.20;88.10;;;;;;4995646;28;20018;-83
2023/06/02 01:27:16;;;;;;;8.52;2.60;;;13.10;87.80;;;;;;4996565;28;20030;-83
2023/06/02 01:29:43;;;;;;;8.73;2.88;;;13.10;87.80;;;;;;4996669;28;20015;-83
2023/06/02 01:32:25;;;;;;;8.05;2.90;;;13.00;87.80;;;;;;4979180;28;20037;-83
2023/06/02 01:34:58;;;;;;;6.95;2.60;;;13.00;87.80;;;;;;4979194;28;20026;-83
2023/06/02 01:37:25;;;;;;;8.10;2.22;;;13.00;87.80;;;;;;4979225;28;20023;-84
2023/06/02 01:39:53;;;;;;;11.02;3.03;;;13.00;87.70;;;;;;4995145;28;20038;-83
2023/06/02 01:42:20;;;;;;;10.18;3.00;;;13.00;87.60;;;;;;4978766;28;20030;-83
2023/06/02 01:44:46;;;;;;;9.68;2.80;;;13.00;87.60;;;;;;4996380;28;20523;-83
2023/06/02 01:47:12;;;;;;;9.00;2.83;;;13.00;87.40;;;;;;4995246;28;20041;-84
2023/06/02 01:49:38;;;;;;;10.57;3.05;;;13.00;87.50;;;;;;4995294;28;20035;-83
2023/06/02 01:52:04;;;;;;;10.32;3.30;;;12.90;87.50;;;;;;4995138;28;20494;-83
2023/06/02 01:54:29;;;;;;;10.00;3.13;;;13.00;87.60;;;;;;4995555;28;20042;-83
2023/06/02 01:56:55;;;;;;;11.82;2.80;;;12.90;87.60;;;;;;4994957;28;20030;-84
2023/06/02 01:59:22;;;;;;;10.27;3.00;;;12.90;87.70;;;;;;4995007;28;20046;-83
2023/06/02 02:01:48;;;;;;;6.00;2.60;;;12.90;87.70;;;;;;4978628;28;20030;-82
2023/06/02 02:04:13;;;;;;;8.75;2.67;;;12.90;87.70;;;;;;4994548;28;20058;-83
2023/06/02 02:06:39;;;;;;;8.23;2.75;;;12.80;87.90;;;;;;4978731;28;20027;-83
2023/06/02 02:09:08;;;;;;;7.90;3.30;;;12.80;88.10;;;;;;4994453;28;20026;-83
2023/06/02 02:11:34;;;;;;;7.68;2.63;;;12.80;88.20;;;;;;4995977;28;20076;-83
2023/06/02 02:14:04;;;;;;;8.77;3.00;;;12.80;88.10;;;;;;4994208;28;20431;-83
2023/06/02 02:16:30;;;;;;;6.80;2.50;;;12.80;88.10;;;;;;4978483;28;20034;-83
2023/06/02 02:18:58;;;;;;;9.98;2.85;;;12.90;88.30;;;;;;4994751;28;20041;-83
2023/06/02 02:21:24;;;;;;;8.77;2.42;;;12.80;88.10;;;;;;4993811;28;20053;-83
2023/06/02 02:23:49;;;;;;;9.00;2.63;;;12.90;88.30;;;;;;4994163;28;20122;-83
2023/06/02 02:26:16;;;;;;;9.93;2.60;;;12.80;88.10;;;;;;4994401;28;20066;-83
2023/06/02 02:28:41;;;;;;;8.27;3.30;;;12.80;88.30;;;;;;4978452;28;20019;-83
2023/06/02 02:31:07;;;;;;;6.55;2.40;;;12.80;88.30;;;;;;5014415;28;20014;-83
2023/06/02 02:33:33;;;;;;;7.03;2.42;;;12.80;88.30;;;;;;5019035;28;20044;-83
2023/06/02 02:35:58;;;;;;;7.13;2.15;;;12.80;88.30;;;;;;5018817;28;20078;-83
2023/06/02 02:38:24;;;;;;;5.10;2.30;;;12.90;88.30;;;;;;5019017;28;20027;-83
2023/06/02 02:40:50;;;;;;;11.55;3.10;;;12.90;88.30;;;;;;4986947;28;20030;-83
2023/06/02 02:43:19;;;;;;;6.88;2.45;;;12.80;88.10;;;;;;4995067;28;20030;-83
2023/06/02 02:45:48;;;;;;;8.02;2.47;;;12.80;88.40;;;;;;4976783;28;20109;-83
2023/06/02 02:48:14;;;;;;;7.78;2.63;;;12.80;88.50;;;;;;4977535;28;20026;-83
2023/06/02 02:50:39;;;;;;;8.45;3.00;;;12.80;88.50;;;;;;4993574;28;20057;-83
2023/06/02 02:53:05;;;;;;;6.50;2.80;;;12.70;88.50;;;;;;4977576;28;20038;-83
2023/06/02 02:55:32;;;;;;;7.55;2.80;;;12.70;88.60;;;;;;4993413;28;20035;-83
2023/06/02 02:57:59;;;;;;;7.47;2.97;;;12.70;88.70;;;;;;4993573;28;20037;-83
2023/06/02 03:00:25;;;;;;;5.78;2.22;;;12.70;88.70;;;;;;4994449;28;20038;-83
2023/06/02 03:02:51;;;;;;;12.13;2.65;;;12.70;88.60;;;;;;4993757;28;20037;-83
2023/06/02 03:05:17;;;;;;;6.50;2.30;;;12.80;88.60;;;;;;4977151;28;20487;-83
2023/06/02 03:07:44;;;;;;;5.80;2.40;;;12.80;88.60;;;;;;4993837;28;20034;-83
2023/06/02 03:10:10;;;;;;;4.80;2.30;;;12.80;88.60;;;;;;4977417;28;20486;-83
2023/06/02 03:12:36;;;;;;;6.60;2.50;;;12.80;88.60;;;;;;4993277;28;20045;-83
2023/06/02 03:15:02;;;;;;;7.78;2.30;;;12.90;88.60;;;;;;4993105;28;20031;-83
2023/06/02 03:17:28;;;;;;;6.50;2.50;;;12.90;88.60;;;;;;4994414;28;20053;-83
2023/06/02 03:19:57;;;;;;;8.90;2.70;;;12.90;88.50;;;;;;4977062;28;20065;-83
2023/06/02 03:22:22;;;;;;;7.30;2.72;;;12.90;88.50;;;;;;4977016;28;20022;-83
2023/06/02 03:24:51;;;;;;;7.00;2.88;;;12.80;88.60;;;;;;4993635;28;20085;-83
2023/06/02 03:27:18;;;;;;;6.07;2.50;;;12.70;88.80;;;;;;4993861;28;20034;-83
2023/06/02 03:29:44;;;;;;;7.45;2.53;;;12.70;89.00;;;;;;4977119;28;20018;-83
2023/06/02 03:32:11;;;;;;;8.48;2.78;;;12.70;89.00;;;;;;4976631;28;20034;-83
2023/06/02 03:34:39;;;;;;;7.75;2.47;;;12.80;89.10;;;;;;4976582;28;20027;-83
2023/06/02 03:37:06;;;;;;;4.88;2.33;;;12.80;89.00;;;;;;4977234;28;20022;-84
2023/06/02 03:39:31;;;;;;;8.90;2.72;;;12.80;89.00;;;;;;4975926;28;20046;-84
2023/06/02 03:41:57;;;;;;;10.02;2.88;;;12.80;88.80;;;;;;4976739;28;20031;-84
2023/06/02 03:44:23;;;;;;;6.45;2.50;;;12.70;88.70;;;;;;4976822;28;20026;-83
2023/06/02 03:46:49;;;;;;;7.22;2.40;;;12.60;88.70;;;;;;4993043;28;20082;-83
2023/06/02 03:49:14;;;;;;;10.07;2.83;;;12.70;88.70;;;;;;4993348;28;20443;-84
2023/06/02 03:51:43;;;;;;;6.80;2.30;;;12.70;88.50;;;;;;4994911;28;20042;-84
2023/06/02 03:54:08;;;;;;;6.47;2.55;;;12.60;88.50;;;;;;4976865;28;20030;-83
2023/06/02 03:56:34;;;;;;;8.32;2.72;;;12.60;88.60;;;;;;4977338;28;20027;-83
2023/06/02 03:59:00;;;;;;;5.85;2.40;;;12.50;88.60;;;;;;4980215;28;20062;-83
2023/06/02 04:01:26;;;;;;;6.47;2.45;;;12.50;88.80;;;;;;4997437;28;20043;-84
2023/06/02 04:03:52;;;;;;;4.82;2.10;;;12.40;88.80;;;;;;4997491;28;20494;-83
2023/06/02 04:06:18;;;;;;;8.98;2.58;;;12.50;89.10;;;;;;5005290;28;20026;-83
2023/06/02 04:08:45;;;;;;;7.38;2.75;;;12.50;89.70;;;;;;5000392;28;20026;-83
2023/06/02 04:11:10;;;;;;;7.60;2.15;;;12.60;89.00;;;;;;5000814;28;20023;-83
2023/06/02 04:13:39;;;;;;;8.43;2.25;;;12.60;88.80;;;;;;4999879;28;20483;-83
2023/06/02 04:16:05;;;;;;;5.75;2.30;;;12.70;88.90;;;;;;5000876;28;20026;-82
2023/06/02 04:18:31;;;;;;;8.95;2.05;;;12.70;88.90;;;;;;4982303;28;20506;-83
2023/06/02 04:21:00;;;;;;;6.63;2.28;;;12.80;88.90;;;;;;4981683;28;20434;-83
2023/06/02 04:23:26;;;;;;;7.25;2.75;;;12.80;88.90;;;;;;4997048;28;20030;-83
2023/06/02 04:25:51;;;;;;;6.07;2.30;;;12.80;88.80;;;;;;4980412;28;20022;-83
2023/06/02 04:28:19;;;;;;;11.98;2.75;;;12.80;88.90;;;;;;4996783;28;20038;-83
2023/06/02 04:30:45;;;;;;;7.88;2.65;;;12.80;88.80;;;;;;4980211;28;20043;-83
2023/06/02 04:33:12;;;;;;;13.98;3.10;;;12.70;88.80;;;;;;4997629;28;20103;-83
2023/06/02 04:35:37;;;;;;;5.72;2.15;;;12.70;89.00;;;;;;4997295;28;20502;-83
2023/06/02 04:38:03;;;;;;;7.68;2.95;;;12.70;89.10;;;;;;4980282;28;20031;-84
2023/06/02 04:40:29;;;;;;;7.72;2.42;;;12.80;89.20;;;;;;4980048;28;20027;-84
2023/06/02 04:42:54;;;;;;;8.75;3.05;;;12.80;89.10;;;;;;4996396;28;20026;-83
2023/06/02 04:45:20;;;;;;;7.72;2.95;;;12.80;89.10;;;;;;4996549;28;20480;-83
2023/06/02 04:47:46;;;;;;;12.35;2.70;;;12.80;89.10;;;;;;4995589;28;20077;-83
2023/06/02 04:50:13;;;;;;;10.40;2.50;;;12.80;89.20;;;;;;4996823;28;20495;-83
2023/06/02 04:52:40;;;;;;;8.60;2.58;;;12.80;89.30;;;;;;4997222;28;20054;-82
2023/06/02 04:55:10;;;;;;;7.72;2.58;;;12.70;89.20;;;;;;4996142;28;20120;-83
2023/06/02 04:57:36;;;;;;;8.65;2.40;;;12.80;89.30;;;;;;4997390;28;20027;-83
2023/06/02 05:00:07;;;;;;;7.30;2.67;;;12.80;89.30;;;;;;4997308;28;20117;-83
2023/06/02 05:02:33;;;;;;;7.90;2.50;;;12.80;89.40;;;;;;4979693;28;20018;-83
2023/06/02 05:04:59;;;;;;;9.25;2.45;;;12.80;89.20;;;;;;4995542;28;20134;-83
2023/06/02 05:07:25;;;;;;;7.68;2.55;;;12.80;89.20;;;;;;4996253;28;20403;-83
2023/06/02 05:09:51;;;;;;;6.03;2.20;;;12.90;89.20;;;;;;4979155;28;20117;-83
2023/06/02 05:12:16;;;;;;;9.15;2.60;;;12.90;89.00;;;;;;4979634;28;20058;-83
2023/06/02 05:14:42;;;;;;;7.15;2.17;;;12.80;88.90;;;;;;4995575;28;20397;-83
2023/06/02 05:17:08;;;;;;;6.72;2.40;;;12.80;89.00;;;;;;4996935;28;20023;-83
2023/06/02 05:19:34;;;;;;;13.63;2.65;;;12.90;88.90;;;;;;4979526;28;20022;-83
2023/06/02 05:22:02;;;;;;;10.60;2.80;;;12.80;88.70;;;;;;4979508;28;20493;-83
2023/06/02 05:24:30;;;;;;;8.73;2.45;;;12.80;88.70;;;;;;4979625;28;20026;-83
2023/06/02 05:26:56;;;;;;;8.95;2.72;;;12.80;88.90;;;;;;4995391;28;20031;-83
2023/06/02 05:29:22;;;;;;;7.50;2.83;;;12.70;88.70;;;;;;4979521;28;20032;-83
2023/06/02 05:31:47;;;;;;;9.55;2.38;;;12.80;88.70;;;;;;4979031;28;20058;-83
2023/06/02 05:34:13;;;;;;;9.05;2.42;;;12.80;88.50;;;;;;4996060;28;20035;-83
2023/06/02 05:36:39;;;;;;;9.20;2.60;;;12.80;88.70;;;;;;4995553;28;20046;-83
2023/06/02 05:39:04;;;;;;;6.35;2.28;;;12.90;88.80;;;;;;4979501;28;20379;-83
2023/06/02 05:41:30;;;;;;;7.55;2.45;;;12.90;88.70;;;;;;4980525;28;20486;-83
2023/06/02 05:43:55;;;;;;;8.60;2.30;;;12.90;88.30;;;;;;5009844;28;20037;-82
2023/06/02 05:46:22;;;;;;;9.88;2.60;;;12.90;88.30;;;;;;5003424;28;20024;-82
2023/06/02 05:48:49;;;;;;;6.97;2.45;;;12.90;88.20;;;;;;5001473;28;20057;-82
2023/06/02 05:51:15;;;;;;;8.40;3.00;;;12.90;88.30;;;;;;4992575;28;20034;-82
2023/06/02 05:53:41;;;;;;;8.88;2.50;;;13.00;88.10;;;;;;5001983;28;20061;-82
2023/06/02 05:56:07;;;;;;;8.52;2.63;;;13.00;87.90;;;;;;4996720;28;20019;-82
2023/06/02 05:58:39;;;;;;;10.00;2.28;;;12.90;87.80;;;;;;4979325;28;20027;-82
2023/06/02 06:01:05;;;;;;;10.52;2.78;;;12.90;87.70;;;;;;4995203;28;20030;-82
2023/06/02 06:03:31;;;;;;;8.35;2.20;;;12.90;87.50;;;;;;4995919;28;20113;-82
2023/06/02 06:05:56;;;;;;;8.55;2.03;;;12.90;87.70;;;;;;4994666;28;20099;-83
2023/06/02 06:08:22;;;;;;;8.10;2.33;;;12.90;87.60;;;;;;4994554;28;20547;-83
2023/06/02 06:10:48;;;;;;;8.70;2.42;;;12.90;87.40;;;;;;4994514;28;20069;-82
2023/06/02 06:13:13;;;;;;;8.07;2.22;;;12.90;87.70;;;;;;4995905;28;20034;-83
2023/06/02 06:15:39;;;;;;;6.70;2.10;;;12.90;87.90;;;;;;4978399;28;20037;-83
2023/06/02 06:18:05;;;;;;;8.93;2.17;;;12.90;88.00;;;;;;4978406;28;20029;-83
2023/06/02 06:20:30;;;;;;;10.13;2.55;;;13.00;88.00;;;;;;4993506;28;20053;-83
2023/06/02 06:22:56;;;;;;;9.23;2.28;;;13.10;88.10;;;;;;4978262;28;20026;-83
2023/06/02 06:25:22;;;;;;;9.02;2.33;;;13.20;88.10;;;;;;4978311;28;20030;-83
2023/06/02 06:27:47;;;;;;;6.15;2.08;;;13.30;87.90;;;;;;4978069;28;20031;-83
2023/06/02 06:30:13;;;;;;;9.05;2.42;;;13.30;87.90;;;;;;4978026;28;20060;-83
2023/06/02 06:32:39;;;;;;;10.57;2.50;;;13.40;87.80;;;;;;4994488;28;20039;-82
2023/06/02 06:35:05;;;;;;;10.00;2.53;;;13.50;87.40;;;;;;4978101;28;20069;-83
2023/06/02 06:37:31;;;;;;;10.38;2.17;;;13.40;87.30;;;;;;4994080;28;20478;-83
2023/06/02 06:39:56;;;;;;;7.60;2.45;;;13.50;87.40;;;;;;4993784;28;20049;-83
2023/06/02 06:42:22;;;;;;;6.13;2.30;;;13.50;87.50;;;;;;4977761;28;20548;-83
2023/06/02 06:44:51;;;;;;;7.68;2.10;;;13.50;87.40;;;;;;4994973;28;20382;-83
2023/06/02 06:47:20;;;;;;;10.07;3.03;;;13.50;87.40;;;;;;4993810;28;20026;-81
2023/06/02 06:49:46;;;;;;;6.72;2.17;;;13.50;87.40;;;;;;4977706;28;20035;-83
2023/06/02 06:52:12;;;;;;;8.35;2.80;;;13.50;87.40;;;;;;4977621;28;20031;-82
2023/06/02 06:54:38;;;;;;;8.90;2.28;;;13.40;87.30;;;;;;4993899;28;20073;-82
2023/06/02 06:57:04;;;;;;;8.68;2.60;;;13.40;87.50;;;;;;4995000;28;20522;-83
2023/06/02 06:59:30;;;;;;;8.73;2.70;;;13.40;87.70;;;;;;4995216;28;20113;-83
2023/06/02 07:01:55;;;;;;;8.80;2.30;;;13.30;87.50;;;;;;4995135;28;20085;-83
2023/06/02 07:04:21;;;;;;;7.60;2.28;;;13.20;87.80;;;;;;4993275;28;20061;-83
2023/06/02 07:06:47;;;;;;;7.45;2.42;;;13.20;88.10;;;;;;4993216;28;20077;-83
2023/06/02 07:09:12;;;;;;;11.27;3.20;;;13.30;88.10;;;;;;4993790;28;20105;-83
2023/06/02 07:11:38;;;;;;;9.93;2.28;;;13.40;88.10;;;;;;4993977;28;20026;-83
2023/06/02 07:14:04;;;;;;;10.18;2.60;;;13.40;88.10;;;;;;4996835;28;20422;-83
2023/06/02 07:16:30;;;;;;;5.57;2.30;;;13.50;88.40;;;;;;5000699;28;20030;-83
2023/06/02 07:18:55;;;;;;;6.43;2.03;;;13.60;88.40;;;;;;4996325;28;20038;-83
2023/06/02 07:21:21;;;;;;;11.52;2.50;;;13.70;88.50;;;;;;5008481;28;20029;-83
2023/06/02 07:23:47;;;;;;;8.30;2.50;;;13.70;88.30;;;;;;4999970;28;20018;-82
2023/06/02 07:26:12;;;;;;;13.90;3.10;;;13.80;88.20;;;;;;5017305;28;20038;-82
2023/06/02 07:28:38;;;;;;;9.82;2.45;;;13.80;88.30;;;;;;5001878;28;20037;-82
2023/06/02 07:31:04;;;;;;;9.68;2.55;;;13.80;88.30;;;;;;4978893;28;20421;-82
2023/06/02 07:33:30;;;;;;;7.28;2.45;;;13.80;88.30;;;;;;4978371;28;20018;-80
2023/06/02 07:35:56;;;;;;;6.72;2.20;;;13.90;88.50;;;;;;4977527;28;20034;-80
2023/06/02 07:38:21;;;;;;;8.27;2.33;;;13.90;88.70;;;;;;4995064;28;20478;-83
2023/06/02 07:40:47;;;;;;;7.75;2.53;;;14.00;88.70;;;;;;4992972;28;20398;-83
2023/06/02 07:43:13;;;;;;;11.88;2.72;;;14.00;88.50;;;;;;4992994;28;20026;-83
2023/06/02 07:45:38;;;;;;;8.40;2.10;;;14.10;88.50;;;;;;4977227;28;20030;-83
2023/06/02 07:48:04;;;;;;;5.45;2.08;;;14.10;88.70;;;;;;4976910;28;20030;-83
2023/06/02 07:50:30;;;;;;;7.80;2.30;;;14.10;88.70;;;;;;4976850;28;20026;-83
2023/06/02 07:52:55;;;;;;;10.88;2.42;;;14.10;88.60;;;;;;4992931;28;20562;-83
2023/06/02 07:55:21;;;;;;;9.93;2.55;;;14.10;88.60;;;;;;4993256;28;20034;-83
2023/06/02 07:57:47;;;;;;;11.38;2.40;;;14.20;88.60;;;;;;4992553;28;20027;-83
2023/06/02 08:00:17;;;;;;;7.93;2.25;;;14.30;88.20;;;;;;4992600;28;20045;-83
2023/06/02 08:02:46;;;;;;;6.15;2.10;;;14.20;88.40;;;;;;4994176;28;20030;-83
2023/06/02 08:05:12;;;;;;;6.00;2.05;;;14.30;88.60;;;;;;4993917;28;20046;-83
2023/06/02 08:07:38;;;;;;;9.20;3.03;;;14.30;88.60;;;;;;4994214;28;20067;-83
2023/06/02 08:10:04;;;;;;;6.75;2.47;;;14.40;88.60;;;;;;4992625;28;20498;-83
2023/06/02 08:12:30;;;;;;;9.27;2.72;;;14.40;88.50;;;;;;4992783;28;20026;-83
2023/06/02 08:14:55;;;;;;;8.25;2.40;;;14.50;88.60;;;;;;4992744;28;20039;-83
2023/06/02 08:17:21;;;;;;;10.70;2.72;;;14.40;88.30;;;;;;4993908;28;20061;-83
2023/06/02 08:19:46;;;;;;;10.32;3.22;;;14.30;88.40;;;;;;4976329;28;20130;-83
2023/06/02 08:22:12;;;;;;;9.85;2.50;;;14.30;88.80;;;;;;4976369;28;20034;-83
2023/06/02 08:24:38;;;;;;;9.85;2.65;;;14.30;89.00;;;;;;4992723;28;20081;-83
2023/06/02 08:27:04;;;;;;;13.02;3.15;;;14.30;89.10;;;;;;4992219;28;20042;-83
2023/06/02 08:29:31;;;;;;;9.07;2.60;;;14.30;89.10;;;;;;4994096;28;20073;-83
2023/06/02 08:31:57;;;;;;;7.45;2.53;;;14.30;89.20;;;;;;4992452;28;20528;-83
2023/06/02 08:34:24;;;;;;;8.98;3.00;;;14.40;89.40;;;;;;4992692;28;20026;-83
2023/06/02 08:37:00;;;;;;;11.57;2.70;;;14.30;89.40;;;;;;4992776;28;20027;-83
2023/06/02 08:39:29;;;;;;;7.60;2.67;;;14.30;89.40;;;;;;4992432;28;20173;-83
2023/06/02 08:41:56;;;;;;;6.20;2.55;;;14.40;89.70;;;;;;4992670;28;20042;-83
2023/06/02 08:44:22;;;;;;;6.10;2.08;;;14.50;89.80;;;;;;4995881;28;20034;-83
2023/06/02 08:46:52;;;;;;;7.82;2.53;;;14.60;89.70;;;;;;4996604;28;20031;-83
2023/06/02 08:49:20;;;;;;;9.10;2.53;;;14.60;89.60;;;;;;4980574;28;20026;-83
2023/06/02 08:51:51;;;;;;;9.98;2.80;;;14.60;89.50;;;;;;4980156;28;20038;-83
2023/06/02 08:54:17;;;;;;;;;;;14.70;89.80;;;;;;4998107;28;20475;-83
2023/06/02 08:56:44;;;;;;;6.85;2.50;;;14.70;90.00;;;;;;4997167;28;19921;-83
2023/06/02 08:59:10;;;;;;;5.65;1.92;;;14.70;90.00;;;;;;4997711;28;20487;-82
2023/06/02 09:01:35;;;;;;;8.23;2.20;;;14.80;89.80;;;;;;5004976;28;20035;-82
2023/06/02 09:04:01;;;;;;;5.00;1.92;;;15.00;89.80;;;;;;5017206;28;20042;-81
2023/06/02 09:06:28;;;;;;;9.43;2.75;;;15.10;89.60;;;;;;5017528;28;20061;-82
2023/06/02 09:08:59;;;;;;;11.25;2.97;;;15.20;89.60;;;;;;5000021;28;20442;-83
2023/06/02 09:11:26;;;;;;;8.32;2.60;;;15.20;89.30;;;;;;4996168;28;20045;-83
2023/06/02 09:13:53;;;;;;;7.10;2.65;;;15.30;89.20;;;;;;4998821;28;20080;-83
2023/06/02 09:16:20;;;;;;;8.15;2.88;;;15.30;88.90;;;;;;4980184;28;20549;-83
2023/06/02 09:18:59;;;;;;;6.55;2.55;;;15.20;88.70;;;;;;4980450;28;20053;-81
2023/06/02 09:21:28;;;;;;;8.82;2.50;;;15.10;88.90;;;;;;4979167;28;20065;-81
2023/06/02 09:23:55;;;;;;;6.30;2.63;;;15.20;89.00;;;;;;4995991;28;20077;-81
2023/06/02 09:26:23;;;;;;;7.00;2.53;;;15.20;89.20;;;;;;4979128;28;20031;-81
2023/06/02 09:29:10;;;;;;;10.30;3.20;;;15.30;89.20;;;;;;4979618;28;20041;-81
2023/06/02 09:31:48;;;;;;;9.10;3.05;;;15.20;89.00;;;;;;4979474;28;20030;-83
2023/06/02 09:34:19;;;;;;;7.45;2.70;;;15.20;89.00;;;;;;4994254;28;20070;-80
2023/06/02 09:36:48;;;;;;;7.28;2.53;;;15.30;89.10;;;;;;4995446;28;20026;-80
2023/06/02 09:39:14;;;;;;;6.93;3.13;;;15.40;89.20;;;;;;4995874;28;20030;-81
2023/06/02 09:41:40;;;;;;;7.03;3.05;;;15.50;89.20;;;;;;4994687;28;20390;-81
2023/06/02 09:44:14;;;;;;;9.27;2.92;;;15.60;89.10;;;;;;4994951;28;20095;-81
2023/06/02 09:46:42;;;;;;;7.75;2.92;;;15.60;89.10;;;;;;4978512;28;20065;-81
2023/06/02 09:49:08;;;;;;;8.35;2.70;;;15.70;89.10;;;;;;4978555;28;20076;-82
2023/06/02 09:51:36;;;;;;;6.85;2.88;;;15.80;89.10;;;;;;4996156;28;20466;-82
2023/06/02 09:54:03;;;;;;;6.95;2.50;;;15.90;88.90;;;;;;4994942;28;20022;-81
2023/06/02 09:56:33;;;;;;;5.22;2.67;;;16.00;88.40;;;;;;4995938;28;20026;-81
2023/06/02 09:59:00;;;;;;;8.87;2.87;;;16.00;88.30;;;;;;4994934;28;20034;-82
2023/06/02 10:01:26;;;;;;;10.48;3.22;;;16.10;88.20;;;;;;4993904;28;20308;-82
2023/06/02 10:03:52;;;;;;;6.43;2.92;;;16.10;87.80;;;;;;4978022;28;20022;-82
2023/06/02 10:06:42;;;;;;;7.18;2.67;;;16.10;87.70;;;;;;4994485;28;20051;-82
2023/06/02 10:09:45;;;;;;;8.07;3.00;;;16.10;87.90;;;;;;4995813;28;20081;-82
2023/06/02 10:12:36;;;;;;;8.50;2.97;;;16.20;88.10;;;;;;4995278;28;20018;-81
2023/06/02 10:15:15;;;;;;;;;;;16.30;87.90;;;;;;4994681;28;20026;-82
2023/06/02 10:18:01;;;;;;;9.18;3.63;;;16.30;87.80;;;;;;4995355;28;20008;-81
2023/06/02 10:21:05;;;;;;;6.20;2.58;;;16.20;87.40;;;;;;4977848;28;20037;-82
2023/06/02 10:23:40;;;;;;;8.25;2.78;;;16.30;87.60;;;;;;4993822;28;20406;-81
2023/06/02 10:26:31;;;;;;;7.78;2.92;;;16.30;87.80;;;;;;4993818;28;20039;-82
2023/06/02 10:29:00;;;;;;;7.32;2.83;;;16.40;87.90;;;;;;4975647;28;20052;-82
2023/06/02 10:31:31;;;;;;;7.28;3.33;;;16.40;87.70;;;;;;4994169;28;20046;-82
2023/06/02 10:33:58;;;;;;;;;;;16.40;87.60;;;;;;4978409;28;20046;-82
2023/06/02 10:36:27;;;;;;;7.63;2.92;;;16.50;87.70;;;;;;4994329;28;19910;-82
2023/06/02 10:38:53;;;;;;;8.30;3.22;;;16.60;87.90;;;;;;4978300;28;20026;-82
2023/06/02 10:41:24;;;;;;;9.88;3.17;;;16.70;87.50;;;;;;4994521;28;20046;-82
2023/06/02 10:44:22;;;;;;;8.93;3.42;;;16.70;87.40;;;;;;4995567;28;20057;-82
2023/06/02 10:47:08;;;;;;;7.57;3.05;;;16.80;87.20;;;;;;5015825;28;20021;-82
2023/06/02 10:49:59;;;;;;;8.77;3.78;;;16.80;87.40;;;;;;5001723;28;20026;-82
2023/06/02 10:52:27;;;;;;;7.25;3.05;;;16.80;87.20;;;;;;5017861;28;20560;-82
2023/06/02 10:55:08;;;;;;;11.90;3.40;;;16.80;87.30;;;;;;4983203;28;20065;-82
2023/06/02 10:57:49;;;;;;;;;;;16.90;87.70;;;;;;5008559;28;20031;-82
2023/06/02 11:00:45;;;;;;;10.15;3.22;;;16.80;87.00;;;;;;4997385;28;20350;-81
2023/06/02 11:03:17;;;;;;;6.47;3.17;;;16.90;87.30;;;;;;4993707;28;20042;-82
2023/06/02 11:05:44;;;;;;;9.20;3.72;;;16.90;87.50;;;;;;4992994;28;20097;-82
2023/06/02 11:08:14;;;;;;;6.35;3.25;;;17.00;87.50;;;;;;4976264;28;20030;-82
2023/06/02 11:10:39;;;;;;;8.43;2.97;;;17.10;87.60;;;;;;4993026;28;20121;-82
2023/06/02 11:13:05;;;;;;;11.80;3.72;;;17.10;87.20;;;;;;4993277;28;20118;-82
2023/06/02 11:15:31;;;;;;;12.73;4.05;;;17.10;86.80;;;;;;4994062;28;20378;-81
2023/06/02 11:17:56;;;;;;;8.70;3.42;;;17.10;86.70;;;;;;4977044;28;20033;-82
2023/06/02 11:20:34;;;;;;;9.52;3.45;;;17.10;86.90;;;;;;4993170;28;20030;-82
2023/06/02 11:23:04;;;;;;;7.43;2.85;;;17.10;87.10;;;;;;4992760;28;20175;-82
2023/06/02 11:25:30;;;;;;;7.53;3.13;;;17.20;87.10;;;;;;4976314;28;20046;-82
2023/06/02 11:27:55;;;;;;;7.55;3.28;;;17.30;86.90;;;;;;4976624;28;20038;-82
2023/06/02 11:30:21;;;;;;;8.73;3.13;;;17.30;86.80;;;;;;4976469;28;20372;-82
2023/06/02 11:32:51;;;;;;;11.50;3.42;;;17.30;86.80;;;;;;4992647;28;20478;-81
2023/06/02 11:35:25;;;;;;;8.10;3.35;;;17.40;86.80;;;;;;4976816;28;20084;-81
2023/06/02 11:38:02;;;;;;;9.85;3.70;;;17.50;86.80;;;;;;4993069;28;20022;-82
2023/06/02 11:40:29;;;;;;;6.80;3.28;;;17.60;86.50;;;;;;4976250;28;20041;-81
2023/06/02 11:42:55;;;;;;;10.25;3.60;;;17.60;86.70;;;;;;4976888;28;20422;-81
2023/06/02 11:45:27;;;;;;;7.75;3.33;;;17.60;86.50;;;;;;4976750;28;20482;-82
2023/06/02 11:47:57;;;;;;;9.70;3.35;;;17.70;86.70;;;;;;4976828;28;20033;-81
2023/06/02 11:50:23;;;;;;;5.22;2.72;;;17.80;86.60;;;;;;4993784;28;20034;-81
2023/06/02 11:52:48;;;;;;;7.40;3.33;;;17.90;86.60;;;;;;4993852;28;20026;-81
2023/06/02 11:55:15;;;;;;;5.35;3.05;;;18.00;86.40;;;;;;4993631;28;20022;-80
2023/06/02 11:57:43;;;;;;;7.40;2.90;;;18.00;86.50;;;;;;4992976;28;20049;-82
2023/06/02 12:00:19;;;;;;;10.00;3.45;;;18.10;86.30;;;;;;4976367;28;20069;-82
2023/06/02 12:02:51;;;;;;;6.50;2.80;;;18.20;86.30;;;;;;4992724;28;20125;-82
2023/06/02 12:05:36;;;;;;;9.13;3.35;;;18.30;86.30;;;;;;4973101;28;20398;-82
2023/06/02 12:08:35;;;;;;;8.95;3.22;;;18.40;85.90;;;;;;4973602;28;20149;-82
2023/06/02 12:11:00;;;;;;;9.73;3.40;;;18.40;86.00;;;;;;4962158;28;20039;-81
2023/06/02 12:13:27;;;;;;;8.43;3.22;;;18.40;85.70;;;;;;4957108;28;20082;-82
2023/06/02 12:15:54;;;;;;;13.15;4.22;;;18.40;85.60;;;;;;4973589;28;20117;-81
2023/06/02 12:18:31;;;;;;;10.98;4.50;;;18.40;85.30;;;;;;4973248;28;20078;-81
2023/06/02 12:20:59;;;;;;;11.98;3.40;;;18.40;85.20;;;;;;4978519;28;20130;-81
2023/06/02 12:23:44;;;;;;;8.85;3.20;;;18.30;85.20;;;;;;4978588;28;20023;-81
2023/06/02 12:26:10;;;;;;;8.50;3.15;;;18.30;85.70;;;;;;4978503;28;20031;-82
2023/06/02 12:28:38;;;;;;;9.45;3.13;;;18.40;85.60;;;;;;4978657;28;20027;-81
2023/06/02 12:31:06;;;;;;;6.93;2.80;;;18.30;85.50;;;;;;4978747;28;20501;-82
2023/06/02 12:33:32;;;;;;;8.73;3.83;;;18.40;85.70;;;;;;4981239;28;20031;-81
2023/06/02 12:35:58;;;;;;;5.72;3.03;;;18.40;85.50;;;;;;4985711;28;20022;-82
2023/06/02 12:38:23;;;;;;;8.95;4.15;;;18.50;85.50;;;;;;4960795;28;20031;-81
2023/06/02 12:40:51;;;;;;;8.32;3.22;;;18.50;85.20;;;;;;4985919;28;20062;-81
2023/06/02 12:43:18;;;;;;;8.05;3.85;;;18.50;85.40;;;;;;4980822;28;20073;-81
2023/06/02 12:45:44;;;;;;;6.80;3.20;;;18.50;85.50;;;;;;4993652;28;20177;-82
2023/06/02 12:48:11;;;;;;;7.78;3.50;;;18.60;85.70;;;;;;4976114;28;20065;-82
2023/06/02 12:50:40;;;;;;;9.93;3.30;;;18.60;85.50;;;;;;4976285;28;20042;-82